createdAt,value
2022-10-03T00:01:37.222Z,99.59
2022-10-03T00:03:37.833Z,99.57
2022-10-03T00:05:39.794Z,99.56
2022-10-03T00:09:41.852Z,99.56
2022-10-03T00:11:43.042Z,99.54
2022-10-03T00:13:44.060Z,99.54
2022-10-03T00:15:46.050Z,99.56
2022-10-03T00:17:47.730Z,99.55
2022-10-03T00:19:49.483Z,99.53
2022-10-03T00:21:50.673Z,99.55
2022-10-03T00:23:52.097Z,99.55
2022-10-03T00:25:53.809Z,99.55
2022-10-03T00:27:55.081Z,99.56
2022-10-03T00:29:56.742Z,99.55
2022-10-03T00:31:58.602Z,99.54
2022-10-03T00:34:00.354Z,99.55
2022-10-03T00:36:01.664Z,99.53
2022-10-03T00:38:03.176Z,99.53
2022-10-03T00:40:04.256Z,99.54
2022-10-03T00:42:05.935Z,99.53
2022-10-03T00:44:07.627Z,99.53
2022-10-03T00:46:09.528Z,99.52
2022-10-03T00:48:11.103Z,99.53
2022-10-03T00:52:13.877Z,99.54
2022-10-03T00:54:15.704Z,99.53
2022-10-03T00:56:17.596Z,99.53
2022-10-03T00:58:19.105Z,99.53
2022-10-03T01:00:21.050Z,99.51
2022-10-03T01:02:22.835Z,99.51
2022-10-03T01:04:24.595Z,99.53
2022-10-03T01:06:25.979Z,99.54
2022-10-03T01:08:27.546Z,99.55
2022-10-03T01:10:28.507Z,99.55
2022-10-03T01:12:30.246Z,99.55
2022-10-03T01:14:31.602Z,99.54
2022-10-03T01:16:33.440Z,99.55
2022-10-03T01:18:34.904Z,99.56
2022-10-03T01:20:36.788Z,99.54
2022-10-03T01:22:38.676Z,99.55
2022-10-03T01:24:39.952Z,99.54
2022-10-03T01:26:41.454Z,99.53
2022-10-03T01:28:42.686Z,99.51
2022-10-03T01:30:43.640Z,99.54
2022-10-03T01:34:46.108Z,99.54
2022-10-03T01:36:47.279Z,99.53
2022-10-03T01:38:48.466Z,99.53
2022-10-03T01:40:49.474Z,99.55
2022-10-03T01:42:50.454Z,99.54
2022-10-03T01:44:52.359Z,99.54
2022-10-03T01:46:53.740Z,99.52
2022-10-03T01:48:55.075Z,99.53
2022-10-03T01:50:56.366Z,99.53
2022-10-03T01:53:05.817Z,99.56
2022-10-03T01:54:58.942Z,99.54
2022-10-03T01:57:00.505Z,99.58
2022-10-03T01:59:01.789Z,99.58
2022-10-03T02:01:03.126Z,99.58
2022-10-03T02:03:04.981Z,99.56
2022-10-03T02:05:06.293Z,99.6
2022-10-03T02:07:07.264Z,99.6
2022-10-03T02:09:08.896Z,99.6
2022-10-03T02:11:10.307Z,99.58
2022-10-03T02:13:11.446Z,99.58
2022-10-03T02:15:12.479Z,99.57
2022-10-03T02:17:14.150Z,99.58
2022-10-03T02:19:15.201Z,99.56
2022-10-03T02:23:17.855Z,99.53
2022-10-03T02:25:19.624Z,99.56
2022-10-03T02:27:21.045Z,99.57
2022-10-03T02:29:22.617Z,99.59
2022-10-03T02:33:26.003Z,99.62
2022-10-03T02:35:27.859Z,99.61
2022-10-03T02:37:29.258Z,99.63
2022-10-03T02:39:30.682Z,99.62
2022-10-03T02:41:31.775Z,99.62
2022-10-03T02:43:33.638Z,99.65
2022-10-03T02:45:34.618Z,99.63
2022-10-03T02:47:36.247Z,99.62
2022-10-03T02:49:38.007Z,99.62
2022-10-03T02:51:39.288Z,99.62
2022-10-03T02:53:40.158Z,99.61
2022-10-03T02:55:41.379Z,99.61
2022-10-03T02:57:42.709Z,99.58
2022-10-03T02:59:44.170Z,99.62
2022-10-03T03:00:27.983Z,99.6
2022-10-03T03:02:29.337Z,99.6
2022-10-03T03:04:30.238Z,99.59
2022-10-03T03:06:31.421Z,99.61
2022-10-03T03:10:34.588Z,99.58
2022-10-03T03:12:40.532Z,99.56
2022-10-03T03:14:38.009Z,99.55
2022-10-03T03:16:39.106Z,99.52
2022-10-03T03:18:41.003Z,99.54
2022-10-03T03:20:42.089Z,99.52
2022-10-03T03:22:43.088Z,99.53
2022-10-03T03:24:44.140Z,99.51
2022-10-03T03:26:45.689Z,99.54
2022-10-03T03:28:47.317Z,99.55
2022-10-03T03:30:48.354Z,99.57
2022-10-03T03:32:49.827Z,99.52
2022-10-03T03:34:51.137Z,99.55
2022-10-03T03:36:52.642Z,99.55
2022-10-03T03:38:54.376Z,99.52
2022-10-03T03:42:57.231Z,99.53
2022-10-03T03:44:59.122Z,99.53
2022-10-03T03:47:00.673Z,99.54
2022-10-03T03:49:01.838Z,99.57
2022-10-03T03:53:04.952Z,99.55
2022-10-03T03:55:06.550Z,99.54
2022-10-03T03:59:08.951Z,99.5
2022-10-03T04:01:09.962Z,99.53
2022-10-03T04:03:11.239Z,99.52
2022-10-03T04:05:12.340Z,99.52
2022-10-03T04:09:15.115Z,99.55
2022-10-03T04:11:16.710Z,99.56
2022-10-03T04:13:17.875Z,99.56
2022-10-03T04:15:19.663Z,99.54
2022-10-03T04:17:20.863Z,99.54
2022-10-03T04:19:21.988Z,99.52
2022-10-03T04:21:23.638Z,99.5
2022-10-03T04:23:24.643Z,99.51
2022-10-03T04:25:26.558Z,99.51
2022-10-03T04:27:27.595Z,99.53
2022-10-03T04:29:28.887Z,99.54
2022-10-03T04:31:29.956Z,99.54
2022-10-03T04:33:31.154Z,99.56
2022-10-03T04:35:33.114Z,99.56
2022-10-03T04:37:34.070Z,99.58
2022-10-03T04:39:36.007Z,99.59
2022-10-03T04:41:39.754Z,99.59
2022-10-03T04:43:38.247Z,99.58
2022-10-03T04:45:39.694Z,99.6
2022-10-03T04:47:41.548Z,99.59
2022-10-03T04:51:44.047Z,99.61
2022-10-03T04:53:45.641Z,99.62
2022-10-03T04:55:47.109Z,99.61
2022-10-03T04:57:48.169Z,99.62
2022-10-03T04:59:49.425Z,99.6
2022-10-03T05:01:51.074Z,99.6
2022-10-03T05:03:52.218Z,99.61
2022-10-03T05:05:54.009Z,99.63
2022-10-03T05:07:55.084Z,99.6
2022-10-03T05:09:56.710Z,99.6
2022-10-03T05:11:57.922Z,99.59
2022-10-03T05:13:59.501Z,99.58
2022-10-03T05:16:00.588Z,99.57
2022-10-03T05:18:01.716Z,99.58
2022-10-03T05:20:03.182Z,99.58
2022-10-03T05:24:06.257Z,99.58
2022-10-03T05:26:32.615Z,99.59
2022-10-03T05:28:09.857Z,99.6
2022-10-03T05:30:10.789Z,99.61
2022-10-03T05:34:13.643Z,99.59
2022-10-03T05:36:15.291Z,99.59
2022-10-03T05:38:16.968Z,99.57
2022-10-03T05:40:18.080Z,99.59
2022-10-03T05:42:22.945Z,99.62
2022-10-03T05:44:21.355Z,99.63
2022-10-03T05:46:22.710Z,99.62
2022-10-03T05:50:26.140Z,99.62
2022-10-03T05:52:27.138Z,99.61
2022-10-03T05:54:28.401Z,99.6
2022-10-03T05:56:29.913Z,99.63
2022-10-03T05:58:31.756Z,99.59
2022-10-03T06:00:33.678Z,99.58
2022-10-03T06:02:34.963Z,99.56
2022-10-03T06:04:35.948Z,99.54
2022-10-03T06:06:37.212Z,99.59
2022-10-03T06:08:38.801Z,99.56
2022-10-03T06:10:40.180Z,99.58
2022-10-03T06:12:41.628Z,99.59
2022-10-03T06:14:43.107Z,99.57
2022-10-03T06:16:44.520Z,99.59
2022-10-03T06:18:45.991Z,99.64
2022-10-03T06:20:47.111Z,99.59
2022-10-03T06:22:48.292Z,99.64
2022-10-03T06:24:50.120Z,99.64
2022-10-03T06:26:51.339Z,99.62
2022-10-03T06:28:53.169Z,99.63
2022-10-03T06:32:56.057Z,99.63
2022-10-03T06:34:57.362Z,99.64
2022-10-03T06:36:59.108Z,99.66
2022-10-03T06:39:00.857Z,99.65
2022-10-03T06:41:02.035Z,99.63
2022-10-03T06:43:03.459Z,99.66
2022-10-03T06:45:05.325Z,99.71
2022-10-03T06:47:06.757Z,99.66
2022-10-03T06:49:08.690Z,99.69
2022-10-03T06:51:09.877Z,99.69
2022-10-03T06:53:11.763Z,99.7
2022-10-03T06:55:13.386Z,99.68
2022-10-03T06:57:14.902Z,99.72
2022-10-03T06:59:16.169Z,99.73
2022-10-03T07:01:17.962Z,99.66
2022-10-03T07:03:18.930Z,99.65
2022-10-03T07:05:20.468Z,99.65
2022-10-03T07:07:21.663Z,99.65
2022-10-03T07:09:22.757Z,99.69
2022-10-03T07:11:23.865Z,99.71
2022-10-03T07:15:43.886Z,99.75
2022-10-03T07:17:27.374Z,99.75
2022-10-03T07:19:28.798Z,99.79
2022-10-03T07:21:30.569Z,99.78
2022-10-03T07:23:32.036Z,99.81
2022-10-03T07:25:33.041Z,99.86
2022-10-03T07:27:33.927Z,99.91
2022-10-03T07:29:35.656Z,99.9
2022-10-03T07:31:38.058Z,99.94
2022-10-03T07:33:39.354Z,99.73
2022-10-03T07:35:40.559Z,99.62
2022-10-03T07:37:41.745Z,99.56
2022-10-03T07:39:43.271Z,99.62
2022-10-03T07:47:48.663Z,99.75
2022-10-03T07:49:49.716Z,99.77
2022-10-03T07:53:52.405Z,99.71
2022-10-03T07:55:53.566Z,99.56
2022-10-03T07:57:55.593Z,99.6
2022-10-03T07:59:56.819Z,99.5
2022-10-03T08:01:58.507Z,99.47
2022-10-03T08:03:59.924Z,99.37
2022-10-03T08:06:01.690Z,99.28
2022-10-03T08:08:03.449Z,99.33
2022-10-03T08:10:04.770Z,99.28
2022-10-03T08:12:06.461Z,98.9
2022-10-03T08:14:07.260Z,99.18
2022-10-03T08:18:09.401Z,98.32
2022-10-03T08:20:10.826Z,97.6
2022-10-03T08:22:12.323Z,96.33
2022-10-03T08:24:13.524Z,95.86
2022-10-03T08:26:14.810Z,95.88
2022-10-03T08:28:16.402Z,95.32
2022-10-03T08:30:17.515Z,92.84
2022-10-03T08:32:18.651Z,91.74
2022-10-03T08:34:20.027Z,92.32
2022-10-03T08:36:21.391Z,91.34
2022-10-03T08:38:27.278Z,88.55
2022-10-03T08:40:24.801Z,89.58
2022-10-03T08:42:26.300Z,87.92
2022-10-03T08:46:28.847Z,87.42
2022-10-03T08:48:30.367Z,85
2022-10-03T08:50:31.416Z,84.56
2022-10-03T08:52:33.139Z,84.69
2022-10-03T08:56:36.238Z,85.47
2022-10-03T08:58:37.091Z,85.72
2022-10-03T09:00:37.934Z,84.32
2022-10-03T09:02:40.253Z,86.17
2022-10-03T09:04:41.259Z,84.86
2022-10-03T09:08:44.124Z,83.77
2022-10-03T09:10:45.344Z,85.96
2022-10-03T09:12:46.936Z,84.72
2022-10-03T09:14:47.884Z,85.69
2022-10-03T09:16:49.305Z,80.35
2022-10-03T09:18:50.758Z,81.71
2022-10-03T09:20:52.200Z,82.79
2022-10-03T09:22:53.071Z,84.33
2022-10-03T09:24:54.298Z,82.24
2022-10-03T09:26:55.816Z,81.32
2022-10-03T09:28:57.304Z,80.58
2022-10-03T09:30:59.090Z,82.5
2022-10-03T09:32:59.903Z,81.78
2022-10-03T09:35:04.866Z,81.31
2022-10-03T09:39:03.978Z,82.34
2022-10-03T09:41:05.711Z,79.17
2022-10-03T09:43:06.472Z,80.79
2022-10-03T09:45:07.350Z,80.32
2022-10-03T09:45:50.989Z,78.48
2022-10-03T09:47:51.807Z,75.99
2022-10-03T09:49:53.226Z,75.44
2022-10-03T09:51:54.447Z,73.53
2022-10-03T09:53:55.775Z,70.59
2022-10-03T09:55:56.689Z,71.2
2022-10-03T09:57:58.328Z,69.46
2022-10-03T09:59:59.443Z,71.24
2022-10-03T10:02:00.365Z,71.42
2022-10-03T10:04:02.318Z,71.61
2022-10-03T10:06:03.902Z,71.15
2022-10-03T10:08:04.770Z,67.77
2022-10-03T10:10:06.469Z,70.86
2022-10-03T10:12:07.781Z,65.74
2022-10-03T10:14:09.119Z,66.59
2022-10-03T10:16:10.016Z,65.62
2022-10-03T10:18:10.961Z,65.22
2022-10-03T10:20:11.966Z,65.67
2022-10-03T10:22:12.949Z,66.24
2022-10-03T10:24:14.701Z,69.85
2022-10-03T10:26:16.091Z,69.98
2022-10-03T10:28:17.797Z,70.11
2022-10-03T10:30:19.322Z,72.26
2022-10-03T10:32:21.841Z,74.4
2022-10-03T10:34:22.501Z,72.41
2022-10-03T10:36:23.792Z,72.74
2022-10-03T10:38:25.023Z,70.31
2022-10-03T10:40:26.102Z,72.19
2022-10-03T10:42:27.070Z,70.09
2022-10-03T10:44:28.437Z,72.92
2022-10-03T10:46:30.022Z,70.24
2022-10-03T10:48:30.833Z,68.53
2022-10-03T10:50:32.165Z,70.65
2022-10-03T10:52:33.745Z,69.33
2022-10-03T10:54:35.204Z,69.96
2022-10-03T10:56:36.081Z,69.7
2022-10-03T11:00:37.974Z,70.44
2022-10-03T11:04:40.575Z,69.69
2022-10-03T11:06:42.021Z,69.31
2022-10-03T11:08:42.467Z,67.62
2022-10-03T11:10:43.753Z,65.9
2022-10-03T11:14:46.745Z,62.52
2022-10-03T11:16:47.915Z,67.31
2022-10-03T11:18:49.097Z,64.72
2022-10-03T11:20:50.883Z,61.37
2022-10-03T11:22:51.959Z,60.88
2022-10-03T11:24:53.688Z,64.99
2022-10-03T11:26:55.445Z,62.85
2022-10-03T11:28:56.736Z,63.94
2022-10-03T11:30:58.060Z,64.1
2022-10-03T11:32:59.805Z,65.68
2022-10-03T11:35:01.030Z,66
2022-10-03T11:37:02.695Z,66.2
2022-10-03T11:39:04.425Z,66.54
2022-10-03T11:41:05.847Z,65.94
2022-10-03T11:43:06.757Z,66.93
2022-10-03T11:45:07.813Z,67.54
2022-10-03T11:47:09.249Z,69.44
2022-10-03T11:49:10.987Z,70.24
2022-10-03T11:51:12.235Z,69.87
2022-10-03T11:53:13.447Z,69.3
2022-10-03T11:55:14.447Z,70.34
2022-10-03T11:57:15.769Z,70.19
2022-10-03T11:59:17.276Z,68.48
2022-10-03T12:01:19.027Z,66.27
2022-10-03T12:03:20.312Z,68.16
2022-10-03T12:05:21.745Z,66.8
2022-10-03T12:07:23.046Z,67.19
2022-10-03T12:09:24.793Z,66.46
2022-10-03T12:13:27.757Z,69.11
2022-10-03T12:15:28.986Z,68.38
2022-10-03T12:17:30.029Z,70.06
2022-10-03T12:19:31.747Z,69.12
2022-10-03T12:21:33.108Z,62
2022-10-03T12:23:34.643Z,58.21
2022-10-03T12:25:35.624Z,59.56
2022-10-03T12:27:36.936Z,58.82
2022-10-03T12:29:37.877Z,59.03
2022-10-03T12:31:39.459Z,62.86
2022-10-03T12:33:40.385Z,63.15
2022-10-03T12:35:42.067Z,61.87
2022-10-03T12:37:43.388Z,63.03
2022-10-03T12:39:44.443Z,63.35
2022-10-03T12:41:45.293Z,62.65
2022-10-03T12:43:46.513Z,65.19
2022-10-03T12:45:48.184Z,62.71
2022-10-03T12:47:55.147Z,61.84
2022-10-03T12:49:50.850Z,65.11
2022-10-03T12:51:51.872Z,64.14
2022-10-03T12:55:54.272Z,62.27
2022-10-03T12:57:55.576Z,60.75
2022-10-03T12:59:56.477Z,60.73
2022-10-03T13:01:57.703Z,61.56
2022-10-03T13:03:58.949Z,61.91
2022-10-03T13:06:02.846Z,60.59
2022-10-03T13:08:01.024Z,61.58
2022-10-03T13:10:02.341Z,61.35
2022-10-03T13:12:04.028Z,60.13
2022-10-03T13:14:05.791Z,61.12
2022-10-03T13:16:07.435Z,62.56
2022-10-03T13:18:08.309Z,61.79
2022-10-03T13:20:09.619Z,60.54
2022-10-03T13:22:11.112Z,60.21
2022-10-03T13:24:12.343Z,59.84
2022-10-03T13:28:15.741Z,64.55
2022-10-03T13:30:16.562Z,59.18
2022-10-03T13:32:18.375Z,55.97
2022-10-03T13:34:19.605Z,58.49
2022-10-03T13:38:22.444Z,58.37
2022-10-03T13:40:24.082Z,61.23
2022-10-03T13:44:26.240Z,58.93
2022-10-03T13:46:27.924Z,62.16
2022-10-03T13:48:29.525Z,59.16
2022-10-03T13:50:31.082Z,59.6
2022-10-03T13:52:31.982Z,60.45
2022-10-03T13:54:33.011Z,59.5
2022-10-03T13:56:34.273Z,60.98
2022-10-03T13:58:35.373Z,61.61
2022-10-03T14:00:36.703Z,61.36
2022-10-03T14:02:38.606Z,60.14
2022-10-03T14:06:40.419Z,61.15
2022-10-03T14:08:41.732Z,60.32
2022-10-03T14:10:42.908Z,60.31
2022-10-03T14:12:55.193Z,61.16
2022-10-03T14:14:45.474Z,60.95
2022-10-03T14:16:47.090Z,63.21
2022-10-03T14:18:48.253Z,61.72
2022-10-03T14:20:49.580Z,63.91
2022-10-03T14:22:50.555Z,62.97
2022-10-03T14:24:52.284Z,64.51
2022-10-03T14:26:53.485Z,65.58
2022-10-03T14:28:55.045Z,65.77
2022-10-03T14:31:05.847Z,63.13
2022-10-03T14:32:58.440Z,61.61
2022-10-03T14:37:00.452Z,63.17
2022-10-03T14:39:01.785Z,62.88
2022-10-03T14:41:03.173Z,64.19
2022-10-03T14:43:04.847Z,63.97
2022-10-03T14:47:07.676Z,64.05
2022-10-03T14:49:20.392Z,66.24
2022-10-03T14:51:10.745Z,64.69
2022-10-03T14:53:11.658Z,65.5
2022-10-03T14:55:12.721Z,64.86
2022-10-03T14:57:13.889Z,64.04
2022-10-03T14:59:15.437Z,64.92
2022-10-03T15:01:16.286Z,65.37
2022-10-03T15:03:17.447Z,65.65
2022-10-03T15:05:18.315Z,64.02
2022-10-03T15:09:21.119Z,63.43
2022-10-03T15:11:21.997Z,62.33
2022-10-03T15:13:23.658Z,63.03
2022-10-03T15:15:24.967Z,62.44
2022-10-03T15:19:27.858Z,61.57
2022-10-03T15:21:28.835Z,64.17
2022-10-03T15:23:30.279Z,63.69
2022-10-03T15:25:31.656Z,63.99
2022-10-03T15:27:32.594Z,65.22
2022-10-03T15:29:33.555Z,63.58
2022-10-03T15:31:34.995Z,63.25
2022-10-03T15:33:36.562Z,63.52
2022-10-03T15:35:37.940Z,63.73
2022-10-03T15:37:38.909Z,63.82
2022-10-03T15:39:40.442Z,63.5
2022-10-03T15:41:42.566Z,63.13
2022-10-03T15:43:43.178Z,62.35
2022-10-03T15:45:45.034Z,61.78
2022-10-03T15:47:46.481Z,62.09
2022-10-03T15:49:47.565Z,62.22
2022-10-03T15:51:49.188Z,63.46
2022-10-03T15:53:50.391Z,62.74
2022-10-03T15:55:51.849Z,63.19
2022-10-03T15:57:53.530Z,62.69
2022-10-03T15:59:57.278Z,62.67
2022-10-03T16:01:57.069Z,63
2022-10-03T16:03:58.366Z,63.44
2022-10-03T16:08:00.941Z,62.81
2022-10-03T16:10:02.658Z,64.25
2022-10-03T16:14:05.430Z,64.76
2022-10-03T16:18:07.969Z,66.03
2022-10-03T16:20:09.038Z,65.12
2022-10-03T16:22:10.529Z,67.18
2022-10-03T16:24:11.996Z,67.34
2022-10-03T16:26:12.865Z,68.91
2022-10-03T16:28:14.447Z,70.34
2022-10-03T16:30:15.457Z,69.26
2022-10-03T16:33:09.363Z,71.95
2022-10-03T16:35:10.226Z,73.8
2022-10-03T16:37:11.521Z,76.38
2022-10-03T16:39:13.082Z,79.9
2022-10-03T16:41:14.758Z,81.29
2022-10-03T16:45:17.259Z,80.98
2022-10-03T16:47:18.923Z,81.09
2022-10-03T16:49:20.690Z,80.89
2022-10-03T16:51:22.227Z,81.6
2022-10-03T16:53:23.747Z,82.11
2022-10-03T16:55:24.970Z,83.28
2022-10-03T16:57:25.955Z,83.43
2022-10-03T16:59:27.152Z,82.78
2022-10-03T17:01:28.846Z,83.09
2022-10-03T17:03:30.002Z,82.34
2022-10-03T17:07:32.765Z,81.51
2022-10-03T17:09:34.615Z,81.39
2022-10-03T17:11:36.411Z,82.16
2022-10-03T17:13:37.846Z,82.33
2022-10-03T17:15:38.861Z,84.21
2022-10-03T17:17:40.597Z,83.97
2022-10-03T17:19:42.110Z,84.16
2022-10-03T17:21:43.540Z,85.87
2022-10-03T17:23:44.391Z,85.23
2022-10-03T17:27:47.179Z,85.5
2022-10-03T17:29:48.235Z,85.39
2022-10-03T17:31:49.349Z,85.37
2022-10-03T17:33:50.381Z,86.02
2022-10-03T17:35:52.325Z,86.44
2022-10-03T17:37:53.929Z,87.51
2022-10-03T17:39:55.494Z,87.91
2022-10-03T17:41:56.921Z,87.86
2022-10-03T17:43:58.653Z,88.2
2022-10-03T17:46:00.002Z,88.76
2022-10-03T17:48:01.206Z,88.45
2022-10-03T17:50:02.349Z,88.39
2022-10-03T17:52:03.913Z,88.67
2022-10-03T17:54:04.892Z,88.68
2022-10-03T17:56:06.417Z,89.36
2022-10-03T17:58:07.847Z,89.64
2022-10-03T18:00:09.442Z,89.85
2022-10-03T18:02:10.657Z,89.8
2022-10-03T18:06:12.922Z,90.02
2022-10-03T18:08:14.206Z,90.32
2022-10-03T18:10:15.217Z,90.7
2022-10-03T18:12:17.130Z,91.17
2022-10-03T18:14:18.332Z,91.2
2022-10-03T18:16:20.401Z,91.22
2022-10-03T18:18:22.117Z,91.11
2022-10-03T18:20:23.401Z,91.25
2022-10-03T18:22:24.666Z,91.09
2022-10-03T18:24:26.269Z,91.56
2022-10-03T18:26:27.819Z,91.6
2022-10-03T18:28:29.486Z,91.66
2022-10-03T18:30:31.114Z,92.31
2022-10-03T18:32:32.265Z,92.83
2022-10-03T18:34:33.700Z,93
2022-10-03T18:36:35.421Z,93.11
2022-10-03T18:38:37.037Z,93.37
2022-10-03T18:42:39.833Z,93.61
2022-10-03T18:44:41.526Z,93.44
2022-10-03T18:46:42.699Z,93.35
2022-10-03T18:48:44.514Z,93.3
2022-10-03T18:50:45.880Z,93.4
2022-10-03T18:52:47.215Z,94.14
2022-10-03T18:54:49.086Z,95.08
2022-10-03T18:56:50.481Z,95.05
2022-10-03T18:58:51.590Z,94.91
2022-10-03T19:00:53.084Z,94.81
2022-10-03T19:02:54.473Z,95.25
2022-10-03T19:04:55.828Z,95.19
2022-10-03T19:08:58.254Z,95.17
2022-10-03T19:10:59.535Z,95.14
2022-10-03T19:13:01.046Z,95.25
2022-10-03T19:15:02.627Z,95.21
2022-10-03T19:17:04.240Z,95.4
2022-10-03T19:21:07.590Z,95.98
2022-10-03T19:23:09.365Z,96.18
2022-10-03T19:25:10.864Z,96.03
2022-10-03T19:27:11.940Z,95.93
2022-10-03T19:29:13.474Z,96.05
2022-10-03T19:31:14.819Z,96.17
2022-10-03T19:33:16.159Z,96.15
2022-10-03T19:35:18.117Z,96.14
2022-10-03T19:37:19.477Z,96.39
2022-10-03T19:41:23.036Z,96.71
2022-10-03T19:43:23.995Z,96.75
2022-10-03T19:45:25.334Z,96.69
2022-10-03T19:47:26.949Z,96.71
2022-10-03T19:49:28.403Z,96.97
2022-10-03T19:51:29.675Z,97.06
2022-10-03T19:53:31.445Z,97.04
2022-10-03T19:55:33.146Z,97.02
2022-10-03T19:57:34.783Z,97.06
2022-10-03T19:59:36.153Z,97.03
2022-10-03T20:01:38.124Z,97.04
2022-10-03T20:03:39.544Z,97.14
2022-10-03T20:05:40.575Z,97.14
2022-10-03T20:07:41.722Z,97.08
2022-10-03T20:09:43.420Z,97.06
2022-10-03T20:11:44.639Z,97.15
2022-10-03T20:13:46.306Z,97.13
2022-10-03T20:15:47.427Z,97.26
2022-10-03T20:17:48.683Z,97.36
2022-10-03T20:19:50.111Z,97.35
2022-10-03T20:21:51.485Z,97.55
2022-10-03T20:23:53.205Z,97.5
2022-10-03T20:25:54.815Z,97.42
2022-10-03T20:27:56.519Z,97.38
2022-10-03T20:29:57.999Z,97.38
2022-10-03T20:31:59.715Z,97.44
2022-10-03T20:34:01.415Z,97.58
2022-10-03T20:36:02.384Z,97.57
2022-10-03T20:38:04.195Z,97.72
2022-10-03T20:40:05.690Z,97.84
2022-10-03T20:42:06.852Z,97.95
2022-10-03T20:44:08.487Z,97.96
2022-10-03T20:46:10.009Z,97.96
2022-10-03T20:48:11.379Z,98.02
2022-10-03T20:50:12.848Z,97.95
2022-10-03T20:52:14.546Z,97.97
2022-10-03T20:54:15.664Z,97.96
2022-10-03T20:56:16.912Z,97.91
2022-10-03T20:58:18.011Z,97.9
2022-10-03T21:00:19.926Z,97.92
2022-10-03T21:02:21.662Z,97.91
2022-10-03T21:04:22.819Z,97.86
2022-10-03T21:06:24.232Z,97.86
2022-10-03T21:08:25.722Z,97.87
2022-10-03T21:10:27.241Z,97.9
2022-10-03T21:12:29.134Z,97.97
2022-10-03T21:14:30.958Z,97.97
2022-10-03T21:16:32.858Z,98.02
2022-10-03T21:18:34.587Z,98.13
2022-10-03T21:22:37.580Z,98.17
2022-10-03T21:24:38.853Z,98.14
2022-10-03T21:26:40.776Z,98.15
2022-10-03T21:28:42.740Z,98.11
2022-10-03T21:30:44.712Z,98.17
2022-10-03T21:32:46.396Z,98.16
2022-10-03T21:34:48.347Z,98.17
2022-10-03T21:36:50.313Z,98.21
2022-10-03T21:38:51.656Z,98.31
2022-10-03T21:40:53.236Z,98.33
2022-10-03T21:42:54.684Z,98.32
2022-10-03T21:44:55.915Z,98.31
2022-10-03T21:46:57.812Z,98.28
2022-10-03T21:48:59.367Z,98.25
2022-10-03T21:51:01.217Z,98.27
2022-10-03T21:53:03.235Z,98.31
2022-10-03T21:57:05.750Z,98.31
2022-10-03T21:59:07.305Z,98.41
2022-10-03T22:01:08.713Z,98.41
2022-10-03T22:03:09.863Z,98.37
2022-10-03T22:05:11.222Z,98.38
2022-10-03T22:07:12.458Z,98.36
2022-10-03T22:09:13.804Z,98.37
2022-10-03T22:11:15.768Z,98.53
2022-10-03T22:13:17.606Z,98.61
2022-10-03T22:15:18.954Z,98.62
2022-10-03T22:17:20.102Z,98.61
2022-10-03T22:19:22.093Z,98.6
2022-10-03T22:21:23.531Z,98.6
2022-10-03T22:23:24.553Z,98.6
2022-10-03T22:25:25.759Z,98.59
2022-10-03T22:27:27.153Z,98.56
2022-10-03T22:29:28.408Z,98.51
2022-10-03T22:31:29.627Z,98.59
2022-10-03T22:33:31.445Z,98.66
2022-10-03T22:35:33.027Z,98.66
2022-10-03T22:37:34.965Z,98.68
2022-10-03T22:39:36.037Z,98.7
2022-10-03T22:41:37.961Z,98.69
2022-10-03T22:43:39.776Z,98.71
2022-10-03T22:45:41.708Z,98.73
2022-10-03T22:47:43.694Z,98.77
2022-10-03T22:49:45.103Z,98.77
2022-10-03T22:51:46.166Z,98.79
2022-10-03T22:53:47.961Z,98.79
2022-10-03T22:55:49.483Z,98.78
2022-10-03T22:57:50.623Z,98.75
2022-10-03T22:59:51.817Z,98.76
2022-10-03T23:01:53.670Z,98.77
2022-10-03T23:03:54.804Z,98.76
2022-10-03T23:05:55.784Z,98.71
2022-10-03T23:07:57.777Z,98.69
2022-10-03T23:09:59.731Z,98.69
2022-10-03T23:12:01.278Z,98.77
2022-10-03T23:14:03.164Z,98.81
2022-10-03T23:16:04.869Z,98.82
2022-10-03T23:18:50.451Z,98.8
2022-10-03T23:20:51.838Z,98.76
2022-10-03T23:22:53.205Z,98.76
2022-10-03T23:24:54.936Z,98.78
2022-10-03T23:28:58.048Z,98.83
2022-10-03T23:30:59.898Z,98.82
2022-10-03T23:33:01.658Z,98.83
2022-10-03T23:35:03.274Z,98.82
2022-10-03T23:37:05.035Z,98.81
2022-10-03T23:39:06.687Z,98.81
2022-10-03T23:41:07.844Z,98.85
2022-10-03T23:43:09.088Z,98.87
2022-10-03T23:45:11.071Z,98.87
2022-10-03T23:47:12.068Z,98.83
2022-10-03T23:51:15.046Z,98.77
2022-10-03T23:53:16.196Z,98.8
2022-10-03T23:55:17.226Z,98.81
2022-10-03T23:57:18.722Z,98.8
